createdAt,value
2023-05-05T00:03:05.615Z,19.03
2023-05-05T00:05:33.333Z,19.03
2023-05-05T00:08:00.936Z,19.02
2023-05-05T00:10:28.634Z,19.02
2023-05-05T00:12:56.267Z,19.01
2023-05-05T01:00:57.928Z,19.00
2023-05-05T01:03:27.152Z,19.00
2023-05-05T01:05:56.849Z,18.99
2023-05-05T01:08:28.071Z,18.99
2023-05-05T01:10:56.455Z,18.99
2023-05-05T01:13:26.710Z,19.00
2023-05-05T01:48:04.538Z,18.98
2023-05-05T01:50:32.292Z,19.00
2023-05-05T01:53:00.004Z,18.99
2023-05-05T01:55:27.820Z,18.99
2023-05-05T01:57:56.620Z,18.98
2023-05-05T02:47:14.445Z,18.97
2023-05-05T02:49:42.179Z,18.96
2023-05-05T02:52:09.857Z,18.96
2023-05-05T02:54:39.307Z,18.96
2023-05-05T02:57:14.297Z,18.96
2023-05-05T02:59:47.144Z,18.95
2023-05-05T03:47:49.606Z,18.93
2023-05-05T03:50:17.552Z,18.91
2023-05-05T03:52:45.389Z,18.93
2023-05-05T03:55:13.040Z,18.96
2023-05-05T03:57:40.729Z,18.97
2023-05-05T04:46:15.023Z,14.18
2023-05-05T04:48:44.166Z,14.14
2023-05-05T04:51:12.761Z,14.12
2023-05-05T04:53:41.174Z,14.10
2023-05-05T04:56:08.848Z,14.13
2023-05-05T04:58:36.499Z,14.37
2023-05-05T05:01:04.432Z,15.40
2023-05-05T05:03:32.998Z,16.18
2023-05-05T05:06:02.215Z,16.67
2023-05-05T05:08:29.885Z,16.92
2023-05-05T05:10:57.494Z,17.12
2023-05-05T05:13:25.458Z,17.23
2023-05-05T05:15:53.198Z,17.34
2023-05-05T05:18:20.814Z,17.43
2023-05-05T05:20:49.973Z,17.51
2023-05-05T05:23:18.952Z,17.55
2023-05-05T05:25:47.183Z,17.61
2023-05-05T05:28:17.212Z,17.66
2023-05-05T05:30:49.955Z,17.69
2023-05-05T05:33:17.655Z,17.75
2023-05-05T05:35:45.898Z,17.78
2023-05-05T05:38:14.098Z,17.83
2023-05-05T05:40:43.148Z,17.88
2023-05-05T05:43:10.810Z,17.93
2023-05-05T05:45:39.744Z,17.96
2023-05-05T05:48:09.092Z,18.01
2023-05-05T05:50:36.798Z,18.04
2023-05-05T05:53:05.009Z,18.07
2023-05-05T05:55:32.658Z,18.09
2023-05-05T05:58:02.155Z,18.13
2023-05-05T06:00:29.994Z,18.17
2023-05-05T06:03:04.366Z,18.20
2023-05-05T06:05:36.036Z,18.24
2023-05-05T06:08:03.837Z,18.27
2023-05-05T06:10:34.532Z,18.26
2023-05-05T06:13:08.386Z,18.24
2023-05-05T06:15:38.533Z,18.29
2023-05-05T06:18:07.228Z,18.29
2023-05-05T06:20:34.927Z,18.31
2023-05-05T06:23:02.530Z,18.33
2023-05-05T06:25:33.375Z,18.34
2023-05-05T06:28:01.069Z,18.36
2023-05-05T06:30:30.070Z,18.36
2023-05-05T06:32:57.733Z,18.36
2023-05-05T06:35:25.377Z,18.43
2023-05-05T06:37:52.968Z,18.47
2023-05-05T06:40:20.968Z,18.46
2023-05-05T06:42:48.649Z,18.46
2023-05-05T06:45:22.254Z,18.47
2023-05-05T06:47:52.411Z,18.47
2023-05-05T06:50:20.224Z,18.50
2023-05-05T06:52:47.813Z,18.51
2023-05-05T06:55:15.800Z,18.53
2023-05-05T06:57:43.431Z,18.53
2023-05-05T07:00:12.042Z,18.55
2023-05-05T07:02:40.119Z,18.56
2023-05-05T07:05:09.418Z,18.59
2023-05-05T07:07:37.112Z,18.59
2023-05-05T07:10:04.927Z,18.60
2023-05-05T07:12:32.615Z,18.62
2023-05-05T07:15:04.772Z,18.63
2023-05-05T07:17:37.217Z,18.62
2023-05-05T07:20:05.029Z,18.64
2023-05-05T07:22:34.092Z,18.64
2023-05-05T07:25:01.668Z,18.65
2023-05-05T07:27:29.324Z,18.64
2023-05-05T07:29:56.924Z,18.65
2023-05-05T07:32:25.055Z,18.65
2023-05-05T07:34:52.758Z,18.65
2023-05-05T07:37:20.484Z,18.66
2023-05-05T07:39:49.515Z,18.67
2023-05-05T07:42:17.189Z,18.68
2023-05-05T07:44:44.834Z,18.68
2023-05-05T07:47:12.541Z,18.67
2023-05-05T07:49:40.162Z,18.63
2023-05-05T07:52:07.884Z,18.60
2023-05-05T07:54:35.473Z,18.57
2023-05-05T07:57:04.597Z,18.54
2023-05-05T07:59:32.362Z,18.54
2023-05-05T08:02:00.045Z,18.52
2023-05-05T08:04:27.651Z,18.50
2023-05-05T08:06:55.310Z,18.50
2023-05-05T08:09:22.994Z,18.52
2023-05-05T08:11:50.664Z,18.53
2023-05-05T08:14:22.226Z,18.51
2023-05-05T08:16:49.856Z,18.53
2023-05-05T08:19:25.274Z,18.52
2023-05-05T08:21:56.122Z,18.47
2023-05-05T08:24:23.754Z,18.52
2023-05-05T08:26:51.532Z,18.53
2023-05-05T08:29:20.486Z,18.54
2023-05-05T08:31:48.097Z,18.54
2023-05-05T08:34:16.079Z,18.55
2023-05-05T08:36:43.704Z,18.52
2023-05-05T08:39:11.334Z,18.54
2023-05-05T08:41:38.949Z,18.53
2023-05-05T08:44:06.584Z,18.51
2023-05-05T08:46:35.586Z,18.55
2023-05-05T08:49:03.784Z,18.57
2023-05-05T08:51:32.144Z,18.59
2023-05-05T08:54:01.989Z,18.59
2023-05-05T08:56:32.490Z,18.58
2023-05-05T08:59:01.113Z,18.57
2023-05-05T09:01:28.892Z,18.50
2023-05-05T09:03:57.979Z,18.51
2023-05-05T09:06:26.841Z,18.55
2023-05-05T09:08:54.552Z,18.59
2023-05-05T09:11:23.098Z,18.56
2023-05-05T09:13:50.859Z,18.58
2023-05-05T09:16:18.457Z,18.58
2023-05-05T09:18:46.157Z,18.59
2023-05-05T09:21:21.966Z,18.59
2023-05-05T09:24:08.648Z,18.58
2023-05-05T09:26:37.146Z,18.61
2023-05-05T09:29:04.808Z,18.64
2023-05-05T09:31:32.605Z,18.67
2023-05-05T09:34:01.054Z,18.69
2023-05-05T09:36:47.617Z,18.71
2023-05-05T09:39:15.393Z,18.71
2023-05-05T09:41:43.598Z,18.74
2023-05-05T09:44:11.401Z,18.75
2023-05-05T09:46:39.124Z,18.77
2023-05-05T09:49:13.604Z,18.80
2023-05-05T09:51:41.194Z,18.80
2023-05-05T09:54:10.191Z,18.81
2023-05-05T09:56:38.370Z,18.83
2023-05-05T09:59:09.056Z,18.84
2023-05-05T10:01:36.678Z,18.86
2023-05-05T10:04:04.264Z,18.87
2023-05-05T10:06:42.037Z,18.87
2023-05-05T10:09:11.098Z,18.88
2023-05-05T10:11:38.691Z,18.89
2023-05-05T10:14:06.288Z,18.90
2023-05-05T10:16:33.904Z,18.92
2023-05-05T10:19:02.785Z,18.93
2023-05-05T10:21:32.027Z,18.94
2023-05-05T10:24:01.710Z,18.94
2023-05-05T10:26:30.629Z,18.96
2023-05-05T10:28:59.643Z,18.97
2023-05-05T10:31:28.501Z,18.98
2023-05-05T10:33:59.472Z,19.00
2023-05-05T10:36:27.863Z,19.00
2023-05-05T10:38:56.043Z,19.01
2023-05-05T10:41:23.867Z,19.01
2023-05-05T10:43:52.826Z,19.03
2023-05-05T10:46:20.491Z,19.03
2023-05-05T10:48:49.052Z,19.04
2023-05-05T10:51:31.117Z,19.06
2023-05-05T10:54:08.791Z,19.06
2023-05-05T10:56:36.519Z,19.06
2023-05-05T10:59:05.518Z,19.07
2023-05-05T11:01:33.803Z,19.09
2023-05-05T11:04:20.365Z,19.09
2023-05-05T11:07:06.731Z,19.08
2023-05-05T11:09:37.042Z,19.11
2023-05-05T11:12:05.235Z,19.11
2023-05-05T11:14:34.179Z,19.11
2023-05-05T11:17:01.841Z,19.12
2023-05-05T11:19:48.548Z,19.13
2023-05-05T11:22:17.472Z,19.13
2023-05-05T11:24:45.117Z,19.16
2023-05-05T11:27:12.671Z,19.16
2023-05-05T11:30:07.218Z,19.17
2023-05-05T11:32:35.947Z,19.19
2023-05-05T11:35:03.916Z,19.19
2023-05-05T11:37:31.517Z,19.20
2023-05-05T11:40:04.432Z,19.21
2023-05-05T11:42:32.291Z,19.21
2023-05-05T11:44:59.914Z,19.23
2023-05-05T11:47:32.397Z,19.24
2023-05-05T11:50:00.447Z,19.23
2023-05-05T11:52:28.447Z,19.23
2023-05-05T11:55:00.760Z,19.23
2023-05-05T11:57:29.066Z,19.23
2023-05-05T11:59:56.958Z,19.26
2023-05-05T12:02:24.752Z,19.28
2023-05-05T12:04:54.006Z,19.27
2023-05-05T12:07:22.039Z,19.28
2023-05-05T12:09:49.908Z,19.29
2023-05-05T12:12:17.623Z,19.30
2023-05-05T12:14:50.478Z,19.30
2023-05-05T12:17:18.555Z,19.29
2023-05-05T12:19:46.720Z,19.32
2023-05-05T12:22:20.228Z,19.31
2023-05-05T12:24:54.922Z,19.31
2023-05-05T12:27:22.755Z,19.34
2023-05-05T12:29:50.518Z,19.34
2023-05-05T12:32:21.629Z,19.35
2023-05-05T12:34:49.662Z,19.34
2023-05-05T12:37:19.098Z,19.35
2023-05-05T12:39:48.094Z,19.35
2023-05-05T12:42:15.672Z,19.36
2023-05-05T12:44:44.821Z,19.36
2023-05-05T12:47:12.376Z,19.36
2023-05-05T12:49:46.232Z,19.37
2023-05-05T12:52:14.554Z,19.39
2023-05-05T12:54:56.070Z,19.38
2023-05-05T12:57:23.691Z,19.38
2023-05-05T12:59:51.793Z,19.39
2023-05-05T13:02:19.499Z,19.40
2023-05-05T13:04:50.473Z,19.40
2023-05-05T13:07:19.535Z,19.41
2023-05-05T13:09:47.989Z,19.42
2023-05-05T13:12:17.775Z,19.43
2023-05-05T13:14:46.429Z,19.43
2023-05-05T13:17:14.201Z,19.44
2023-05-05T13:19:46.269Z,19.44
2023-05-05T13:22:14.259Z,19.44
2023-05-05T13:24:50.677Z,19.44
2023-05-05T13:27:21.870Z,19.45
2023-05-05T13:29:49.479Z,19.45
2023-05-05T13:32:17.174Z,19.42
2023-05-05T13:34:44.809Z,19.46
2023-05-05T13:37:12.491Z,19.48
2023-05-05T13:39:40.121Z,19.49
2023-05-05T13:42:07.738Z,19.49
2023-05-05T13:44:36.810Z,19.50
2023-05-05T13:47:04.548Z,19.50
2023-05-05T13:49:32.297Z,19.49
2023-05-05T13:51:59.931Z,19.49
2023-05-05T13:54:28.030Z,19.50
2023-05-05T13:56:55.623Z,19.50
2023-05-05T13:59:23.177Z,19.51
2023-05-05T14:01:52.144Z,19.53
2023-05-05T14:04:19.877Z,19.53
2023-05-05T14:06:47.516Z,19.53
2023-05-05T14:09:15.087Z,19.54
2023-05-05T14:11:42.675Z,19.54
2023-05-05T14:14:10.743Z,19.55
2023-05-05T14:16:38.408Z,19.55
2023-05-05T14:19:07.431Z,19.57
2023-05-05T14:21:35.050Z,19.58
2023-05-05T14:24:02.588Z,19.58
2023-05-05T14:26:30.163Z,19.58
2023-05-05T14:28:57.839Z,19.59
2023-05-05T14:31:25.480Z,19.60
2023-05-05T14:33:53.426Z,19.60
2023-05-05T14:36:23.432Z,19.62
2023-05-05T14:38:51.045Z,19.61
2023-05-05T14:41:18.667Z,19.60
2023-05-05T14:43:46.321Z,19.62
2023-05-05T14:46:14.113Z,19.62
2023-05-05T14:48:41.732Z,19.62
2023-05-05T14:51:09.408Z,19.63
2023-05-05T14:53:38.384Z,19.63
2023-05-05T14:56:06.253Z,19.64
2023-05-05T14:58:33.856Z,19.66
2023-05-05T15:01:01.451Z,19.67
2023-05-05T15:03:29.190Z,19.66
2023-05-05T15:05:57.001Z,19.65
2023-05-05T15:08:24.673Z,19.66
2023-05-05T15:10:53.654Z,19.65
2023-05-05T15:13:21.404Z,19.65
2023-05-05T15:15:50.007Z,19.65
2023-05-05T15:18:17.648Z,19.66
2023-05-05T15:20:45.298Z,19.66
2023-05-05T15:23:12.878Z,19.64
2023-05-05T15:25:40.468Z,19.66
2023-05-05T15:28:09.526Z,19.66
2023-05-05T15:30:37.326Z,19.67
2023-05-05T15:33:05.049Z,19.66
2023-05-05T15:35:32.735Z,19.66
2023-05-05T15:38:00.323Z,19.66
2023-05-05T15:40:27.962Z,19.67
2023-05-05T15:42:55.621Z,19.67
2023-05-05T15:45:24.607Z,19.67
2023-05-05T15:47:53.541Z,19.71
2023-05-05T15:50:21.759Z,19.70
2023-05-05T15:52:50.146Z,19.71
2023-05-05T15:55:17.855Z,19.71
2023-05-05T15:57:45.458Z,19.70
2023-05-05T16:00:13.708Z,19.70
2023-05-05T16:02:42.689Z,19.69
2023-05-05T16:05:10.953Z,19.71
2023-05-05T16:07:38.714Z,19.71
2023-05-05T16:10:06.719Z,19.71
2023-05-05T16:12:34.344Z,19.70
2023-05-05T16:15:02.078Z,19.69
2023-05-05T16:17:29.798Z,19.69
2023-05-05T16:19:58.981Z,19.70
2023-05-05T16:22:26.769Z,19.69
2023-05-05T16:24:54.352Z,19.70
2023-05-05T16:27:22.246Z,19.68
2023-05-05T16:29:49.867Z,19.69
2023-05-05T16:32:17.444Z,19.69
2023-05-05T16:34:45.227Z,19.70
2023-05-05T16:37:14.486Z,19.69
2023-05-05T16:39:42.494Z,19.69
2023-05-05T16:42:10.133Z,19.70
2023-05-05T16:44:37.759Z,19.69
2023-05-05T16:47:05.445Z,19.68
2023-05-05T16:49:33.010Z,19.70
2023-05-05T16:52:00.603Z,19.70
2023-05-05T16:54:29.571Z,19.74
2023-05-05T16:56:58.182Z,19.71
2023-05-05T16:59:25.778Z,19.71
2023-05-05T17:01:53.425Z,19.69
2023-05-05T17:04:21.011Z,19.69
2023-05-05T17:06:48.601Z,19.69
2023-05-05T17:09:16.598Z,19.68
2023-05-05T17:11:45.534Z,19.69
2023-05-05T17:14:13.042Z,19.67
2023-05-05T17:16:40.578Z,19.68
2023-05-05T17:19:08.176Z,19.67
2023-05-05T17:21:35.733Z,19.67
2023-05-05T17:24:03.404Z,19.68
2023-05-05T17:26:31.293Z,19.67
2023-05-05T17:29:00.218Z,19.65
2023-05-05T17:31:27.868Z,19.66
2023-05-05T17:33:55.561Z,19.67
2023-05-05T17:36:23.145Z,19.70
2023-05-05T17:38:50.707Z,19.67
2023-05-05T17:41:18.285Z,19.68
2023-05-05T17:43:46.058Z,19.69
2023-05-05T17:46:15.117Z,19.69
2023-05-05T17:48:42.863Z,19.68
2023-05-05T17:51:11.126Z,19.67
2023-05-05T17:53:38.725Z,19.68
2023-05-05T17:56:08.677Z,19.68
2023-05-05T17:58:36.791Z,19.68
2023-05-05T18:01:04.419Z,19.68
2023-05-05T18:03:33.485Z,19.68
2023-05-05T18:06:02.236Z,19.68
2023-05-05T18:08:29.828Z,19.66
2023-05-05T18:10:57.393Z,19.66
2023-05-05T18:13:25.010Z,19.67
2023-05-05T18:15:52.679Z,19.66
2023-05-05T18:18:20.498Z,19.66
2023-05-05T18:20:49.691Z,19.65
2023-05-05T18:23:17.227Z,19.65
2023-05-05T18:25:44.789Z,19.64
2023-05-05T18:28:12.347Z,19.63
2023-05-05T18:30:39.911Z,19.64
2023-05-05T18:33:07.472Z,19.64
2023-05-05T18:35:35.035Z,19.64
2023-05-05T18:38:04.976Z,19.63
2023-05-05T18:40:32.680Z,19.62
2023-05-05T18:43:00.233Z,19.62
2023-05-05T18:45:27.896Z,19.63
2023-05-05T18:47:56.343Z,19.63
2023-05-05T18:50:23.972Z,19.62
2023-05-05T18:52:51.512Z,19.61
2023-05-05T18:55:20.701Z,19.61
2023-05-05T18:57:48.249Z,19.62
2023-05-05T19:00:16.564Z,19.61
2023-05-05T19:02:44.136Z,19.61
2023-05-05T19:05:11.889Z,19.61
2023-05-05T19:07:39.871Z,19.61
2023-05-05T19:10:08.304Z,19.61
2023-05-05T19:12:37.272Z,19.61
2023-05-05T19:15:05.088Z,19.62
2023-05-05T19:17:32.831Z,19.61
2023-05-05T19:20:01.215Z,19.60
2023-05-05T19:22:29.070Z,19.60
2023-05-05T19:24:56.617Z,19.61
2023-05-05T19:27:24.322Z,19.60
2023-05-05T19:29:53.261Z,19.59
2023-05-05T19:32:21.355Z,19.59
2023-05-05T19:34:49.135Z,19.60
2023-05-05T19:37:16.772Z,19.60
2023-05-05T19:39:45.636Z,19.60
2023-05-05T19:42:13.303Z,19.60
2023-05-05T19:44:40.924Z,19.60
2023-05-05T19:47:10.972Z,19.57
2023-05-05T19:49:38.787Z,19.59
2023-05-05T19:52:06.446Z,19.58
2023-05-05T19:54:33.999Z,19.59
2023-05-05T19:57:01.887Z,19.58
2023-05-05T19:59:30.187Z,19.58
2023-05-05T20:01:57.895Z,19.57
2023-05-05T20:04:26.925Z,19.57
2023-05-05T20:06:54.493Z,19.58
2023-05-05T20:09:22.003Z,19.58
2023-05-05T20:11:49.558Z,19.57
2023-05-05T20:14:17.052Z,19.59
2023-05-05T20:16:44.687Z,19.59
2023-05-05T20:19:12.176Z,19.59
2023-05-05T20:21:41.112Z,19.60
2023-05-05T20:24:08.806Z,19.60
2023-05-05T20:26:36.611Z,19.60
2023-05-05T20:29:04.241Z,19.58
2023-05-05T20:31:31.817Z,19.57
2023-05-05T20:33:59.370Z,19.58
2023-05-05T20:36:27.127Z,19.59
2023-05-05T20:38:56.100Z,19.57
2023-05-05T20:41:23.849Z,19.58
2023-05-05T20:43:51.439Z,19.57
2023-05-05T20:46:18.982Z,19.57
2023-05-05T20:48:46.689Z,19.57
2023-05-05T20:51:14.277Z,19.55
2023-05-05T20:53:41.882Z,19.57
2023-05-05T20:56:11.181Z,19.57
2023-05-05T20:58:38.744Z,19.57
2023-05-05T21:01:06.616Z,19.57
2023-05-05T21:03:34.229Z,19.57
2023-05-05T21:06:02.603Z,19.56
2023-05-05T21:08:30.339Z,19.57
2023-05-05T21:10:58.169Z,19.56
2023-05-05T21:13:27.048Z,19.57
2023-05-05T21:15:54.699Z,19.57
2023-05-05T21:18:22.337Z,19.56
2023-05-05T21:20:49.920Z,19.57
2023-05-05T21:23:17.470Z,19.57
2023-05-05T21:25:45.076Z,19.55
2023-05-05T21:28:12.669Z,19.55
2023-05-05T21:30:41.568Z,19.57
2023-05-05T21:33:09.131Z,19.57
2023-05-05T21:35:36.729Z,19.58
2023-05-05T21:38:04.334Z,19.56
2023-05-05T21:40:31.982Z,19.55
2023-05-05T21:42:59.609Z,19.57
2023-05-05T21:45:27.170Z,19.57
2023-05-05T21:47:56.470Z,19.58
2023-05-05T21:50:24.107Z,19.57
2023-05-05T21:52:51.633Z,19.57
2023-05-05T21:55:19.289Z,19.58
2023-05-05T21:57:46.955Z,19.54
2023-05-05T22:00:16.737Z,19.58
2023-05-05T22:02:44.496Z,19.57
2023-05-05T22:05:13.567Z,19.59
2023-05-05T22:07:41.381Z,19.59
2023-05-05T22:10:09.613Z,19.54
2023-05-05T22:12:37.479Z,19.58
2023-05-05T22:15:05.473Z,19.58
2023-05-05T22:17:33.188Z,19.57
2023-05-05T22:20:00.793Z,19.58
2023-05-05T22:22:29.786Z,19.57
2023-05-05T22:24:57.400Z,19.57
2023-05-05T22:27:25.253Z,19.57
2023-05-05T22:29:52.755Z,19.57
2023-05-05T22:32:21.134Z,19.57
2023-05-05T22:34:48.735Z,19.55
2023-05-05T22:37:16.375Z,19.57
2023-05-05T22:39:45.263Z,19.56
2023-05-05T22:42:12.786Z,19.56
2023-05-05T22:44:40.360Z,19.56
2023-05-05T22:47:09.007Z,19.55
2023-05-05T22:49:36.903Z,19.56
2023-05-05T22:52:04.680Z,19.55
2023-05-05T22:54:32.237Z,19.54
2023-05-05T22:57:02.302Z,19.55
2023-05-05T22:59:30.004Z,19.55
2023-05-05T23:01:57.533Z,19.57
2023-05-05T23:04:25.160Z,19.53
2023-05-05T23:06:52.967Z,19.57
2023-05-05T23:09:20.876Z,19.57
2023-05-05T23:11:48.466Z,19.56
2023-05-05T23:14:19.336Z,19.57
2023-05-05T23:16:47.014Z,19.57
2023-05-05T23:19:14.677Z,19.57
2023-05-05T23:21:52.707Z,19.57
2023-05-05T23:24:20.963Z,19.55
2023-05-05T23:26:48.527Z,19.55
2023-05-05T23:29:17.570Z,19.58
